sensor_id;sensor_type;location;lat;lon;timestamp;pressure;altitude;pressure_sealevel;temperature;humidity
27864;BME280;15980;51.092;13.916;2023-03-25T00:09:12;97643.75;;;9.11;82.64
27864;BME280;15980;51.092;13.916;2023-03-25T00:19:15;97634.75;;;9.10;81.75
27864;BME280;15980;51.092;13.916;2023-03-25T00:29:16;97624.69;;;8.99;81.81
27864;BME280;15980;51.092;13.916;2023-03-25T00:39:16;97608.28;;;8.99;81.69
27864;BME280;15980;51.092;13.916;2023-03-25T00:49:16;97598.50;;;8.82;81.56
27864;BME280;15980;51.092;13.916;2023-03-25T00:59:16;97601.16;;;8.63;82.69
27864;BME280;15980;51.092;13.916;2023-03-25T01:09:18;97599.84;;;8.72;82.72
27864;BME280;15980;51.092;13.916;2023-03-25T01:19:19;97595.22;;;8.92;81.72
27864;BME280;15980;51.092;13.916;2023-03-25T01:29:20;97589.84;;;8.96;81.09
27864;BME280;15980;51.092;13.916;2023-03-25T01:39:21;97592.28;;;9.01;80.64
27864;BME280;15980;51.092;13.916;2023-03-25T01:49:25;97574.00;;;9.05;80.54
27864;BME280;15980;51.092;13.916;2023-03-25T01:59:27;97556.19;;;9.11;80.58
27864;BME280;15980;51.092;13.916;2023-03-25T02:09:28;97540.19;;;9.13;80.18
27864;BME280;15980;51.092;13.916;2023-03-25T02:40:57;97523.84;;;9.55;79.05
27864;BME280;15980;51.092;13.916;2023-03-25T02:50:58;97520.94;;;9.67;78.14
27864;BME280;15980;51.092;13.916;2023-03-25T03:01:01;97512.38;;;9.92;77.20
27864;BME280;15980;51.092;13.916;2023-03-25T03:11:24;97510.16;;;9.97;76.84
27864;BME280;15980;51.092;13.916;2023-03-25T03:31:42;97513.47;;;9.87;76.44
27864;BME280;15980;51.092;13.916;2023-03-25T03:41:47;97515.47;;;9.67;77.00
27864;BME280;15980;51.092;13.916;2023-03-25T03:51:55;97522.03;;;9.63;77.16
27864;BME280;15980;51.092;13.916;2023-03-25T04:01:59;97521.59;;;9.61;77.20
27864;BME280;15980;51.092;13.916;2023-03-25T04:12:04;97525.63;;;9.67;76.56
27864;BME280;15980;51.092;13.916;2023-03-25T04:22:06;97545.50;;;9.83;75.35
27864;BME280;15980;51.092;13.916;2023-03-25T04:32:08;97532.22;;;9.85;74.75
27864;BME280;15980;51.092;13.916;2023-03-25T04:42:09;97535.69;;;9.82;74.45
27864;BME280;15980;51.092;13.916;2023-03-25T04:52:10;97541.59;;;9.84;74.59
27864;BME280;15980;51.092;13.916;2023-03-25T05:02:11;97541.22;;;9.86;74.55
27864;BME280;15980;51.092;13.916;2023-03-25T05:12:11;97541.72;;;9.91;74.08
27864;BME280;15980;51.092;13.916;2023-03-25T05:22:11;97529.84;;;9.84;74.18
27864;BME280;15980;51.092;13.916;2023-03-25T05:32:12;97541.59;;;9.84;73.18
27864;BME280;15980;51.092;13.916;2023-03-25T05:42:13;97540.91;;;10.10;72.40
27864;BME280;15980;51.092;13.916;2023-03-25T05:52:13;97551.53;;;10.34;71.19
27864;BME280;15980;51.092;13.916;2023-03-25T06:02:15;97558.47;;;10.51;69.24
27864;BME280;15980;51.092;13.916;2023-03-25T06:12:20;97566.31;;;10.30;67.61
27864;BME280;15980;51.092;13.916;2023-03-25T06:22:20;97583.94;;;10.29;66.08
27864;BME280;15980;51.092;13.916;2023-03-25T06:32:20;97603.63;;;10.15;65.99
27864;BME280;15980;51.092;13.916;2023-03-25T06:42:22;97603.59;;;9.92;67.33
27864;BME280;15980;51.092;13.916;2023-03-25T06:52:22;97596.19;;;9.73;68.96
27864;BME280;15980;51.092;13.916;2023-03-25T07:02:22;97595.91;;;9.98;69.09
27864;BME280;15980;51.092;13.916;2023-03-25T07:12:23;97604.66;;;10.07;68.10
27864;BME280;15980;51.092;13.916;2023-03-25T07:22:23;97601.69;;;10.16;66.98
27864;BME280;15980;51.092;13.916;2023-03-25T07:32:24;97595.75;;;10.33;65.03
27864;BME280;15980;51.092;13.916;2023-03-25T07:42:24;97615.09;;;10.63;63.74
27864;BME280;15980;51.092;13.916;2023-03-25T07:52:24;97618.50;;;11.32;59.89
27864;BME280;15980;51.092;13.916;2023-03-25T08:02:25;97640.56;;;11.39;58.25
27864;BME280;15980;51.092;13.916;2023-03-25T08:12:25;97648.13;;;11.19;59.34
27864;BME280;15980;51.092;13.916;2023-03-25T08:22:26;97653.84;;;11.33;61.67
27864;BME280;15980;51.092;13.916;2023-03-25T08:32:27;97630.94;;;11.26;65.91
27864;BME280;15980;51.092;13.916;2023-03-25T08:42:27;97650.84;;;10.93;68.86
27864;BME280;15980;51.092;13.916;2023-03-25T08:52:27;97664.69;;;10.77;71.09
27864;BME280;15980;51.092;13.916;2023-03-25T09:02:28;97669.38;;;9.38;80.73
27864;BME280;15980;51.092;13.916;2023-03-25T09:12:28;97689.22;;;8.68;87.01
27864;BME280;15980;51.092;13.916;2023-03-25T09:22:28;97692.56;;;8.93;88.28
27864;BME280;15980;51.092;13.916;2023-03-25T09:32:29;97694.59;;;8.96;87.41
27864;BME280;15980;51.092;13.916;2023-03-25T09:52:56;97711.69;;;8.62;86.37
27864;BME280;15980;51.092;13.916;2023-03-25T10:03:10;97714.16;;;8.67;87.13
27864;BME280;15980;51.092;13.916;2023-03-25T10:13:36;97686.81;;;10.03;85.53
27864;BME280;15980;51.092;13.916;2023-03-25T10:23:47;97674.53;;;10.36;82.36
27864;BME280;15980;51.092;13.916;2023-03-25T10:33:53;97661.09;;;10.96;80.64
27864;BME280;15980;51.092;13.916;2023-03-25T10:43:55;97648.63;;;11.55;79.58
27864;BME280;15980;51.092;13.916;2023-03-25T10:53:56;97639.03;;;12.02;75.03
27864;BME280;15980;51.092;13.916;2023-03-25T11:03:58;97622.16;;;12.40;69.93
27864;BME280;15980;51.092;13.916;2023-03-25T11:14:00;97618.56;;;11.36;75.79
27864;BME280;15980;51.092;13.916;2023-03-25T11:24:01;97647.44;;;9.03;85.09
27864;BME280;15980;51.092;13.916;2023-03-25T11:44:28;97628.09;;;9.47;87.99
27864;BME280;15980;51.092;13.916;2023-03-25T11:54:29;97617.25;;;9.15;88.05
27864;BME280;15980;51.092;13.916;2023-03-25T12:04:31;97582.75;;;9.10;88.29
27864;BME280;15980;51.092;13.916;2023-03-25T12:15:12;97576.03;;;9.08;84.28
27864;BME280;15980;51.092;13.916;2023-03-25T13:07:01;97556.38;;;11.24;69.77
27864;BME280;15980;51.092;13.916;2023-03-25T13:17:07;97540.63;;;12.18;69.67
27864;BME280;15980;51.092;13.916;2023-03-25T13:27:11;97535.53;;;12.16;66.06
27864;BME280;15980;51.092;13.916;2023-03-25T13:37:30;97520.53;;;12.14;64.77
27864;BME280;15980;51.092;13.916;2023-03-25T13:47:38;97496.38;;;12.34;61.92
27864;BME280;15980;51.092;13.916;2023-03-25T14:18:24;97494.72;;;13.46;59.49
27864;BME280;15980;51.092;13.916;2023-03-25T14:28:39;97501.47;;;13.66;56.37
27864;BME280;15980;51.092;13.916;2023-03-25T14:39:10;97507.81;;;12.98;54.29
27864;BME280;15980;51.092;13.916;2023-03-25T14:49:54;97503.69;;;12.67;53.76
27864;BME280;15980;51.092;13.916;2023-03-25T15:00:00;97595.84;;;8.86;73.78
27864;BME280;15980;51.092;13.916;2023-03-25T15:10:01;97569.47;;;7.55;84.67
27864;BME280;15980;51.092;13.916;2023-03-25T15:30:41;97559.44;;;8.03;84.78
27864;BME280;15980;51.092;13.916;2023-03-25T16:01:31;97556.13;;;9.65;74.08
27864;BME280;15980;51.092;13.916;2023-03-25T16:11:31;97558.78;;;9.42;74.20
27864;BME280;15980;51.092;13.916;2023-03-25T16:21:32;97569.88;;;9.11;74.35
27864;BME280;15980;51.092;13.916;2023-03-25T16:31:32;97569.53;;;8.97;70.93
27864;BME280;15980;51.092;13.916;2023-03-25T16:41:34;97575.84;;;9.17;69.46
27864;BME280;15980;51.092;13.916;2023-03-25T16:51:35;97578.38;;;9.25;69.92
27864;BME280;15980;51.092;13.916;2023-03-25T17:01:41;97584.53;;;9.03;69.20
27864;BME280;15980;51.092;13.916;2023-03-25T17:11:43;97567.63;;;8.81;70.38
27864;BME280;15980;51.092;13.916;2023-03-25T17:22:01;97586.25;;;8.60;71.13
27864;BME280;15980;51.092;13.916;2023-03-25T17:32:02;97582.22;;;8.38;71.62
27864;BME280;15980;51.092;13.916;2023-03-25T17:42:06;97588.88;;;8.09;72.86
27864;BME280;15980;51.092;13.916;2023-03-25T17:52:12;97599.69;;;7.90;73.99
27864;BME280;15980;51.092;13.916;2023-03-25T18:02:14;97588.59;;;7.71;74.43
27864;BME280;15980;51.092;13.916;2023-03-25T18:12:15;97592.00;;;7.52;76.01
27864;BME280;15980;51.092;13.916;2023-03-25T18:22:15;97596.22;;;7.49;76.45
27864;BME280;15980;51.092;13.916;2023-03-25T18:32:15;97606.78;;;7.51;76.63
27864;BME280;15980;51.092;13.916;2023-03-25T18:42:16;97628.69;;;8.10;75.31
27864;BME280;15980;51.092;13.916;2023-03-25T18:52:16;97636.09;;;8.38;74.29
27864;BME280;15980;51.092;13.916;2023-03-25T19:02:16;97640.09;;;8.72;72.12
27864;BME280;15980;51.092;13.916;2023-03-25T19:12:17;97653.91;;;8.95;71.93
27864;BME280;15980;51.092;13.916;2023-03-25T19:22:17;97627.63;;;8.90;73.32
27864;BME280;15980;51.092;13.916;2023-03-25T19:32:17;97616.53;;;8.36;75.01
27864;BME280;15980;51.092;13.916;2023-03-25T19:42:17;97616.09;;;8.22;75.86
27864;BME280;15980;51.092;13.916;2023-03-25T19:52:18;97632.47;;;8.65;74.37
27864;BME280;15980;51.092;13.916;2023-03-25T20:02:18;97652.88;;;8.84;72.14
27864;BME280;15980;51.092;13.916;2023-03-25T20:12:18;97642.69;;;9.00;71.78
27864;BME280;15980;51.092;13.916;2023-03-25T20:22:19;97612.34;;;8.89;71.27
27864;BME280;15980;51.092;13.916;2023-03-25T20:32:20;97625.84;;;8.98;70.78
27864;BME280;15980;51.092;13.916;2023-03-25T20:42:20;97626.19;;;8.96;71.42
27864;BME280;15980;51.092;13.916;2023-03-25T20:52:20;97604.25;;;8.77;72.13
27864;BME280;15980;51.092;13.916;2023-03-25T21:02:21;97598.00;;;8.45;73.56
27864;BME280;15980;51.092;13.916;2023-03-25T21:12:21;97582.59;;;8.37;74.63
27864;BME280;15980;51.092;13.916;2023-03-25T21:22:21;97589.19;;;8.36;75.73
27864;BME280;15980;51.092;13.916;2023-03-25T21:32:22;97597.41;;;8.36;76.71
27864;BME280;15980;51.092;13.916;2023-03-25T21:42:22;97595.41;;;8.20;77.15
27864;BME280;15980;51.092;13.916;2023-03-25T21:52:22;97593.44;;;8.21;77.41
27864;BME280;15980;51.092;13.916;2023-03-25T22:02:22;97582.81;;;8.32;77.87
27864;BME280;15980;51.092;13.916;2023-03-25T22:12:23;97598.53;;;8.35;77.50
27864;BME280;15980;51.092;13.916;2023-03-25T22:22:23;97589.44;;;8.46;77.11
27864;BME280;15980;51.092;13.916;2023-03-25T22:32:23;97591.03;;;8.63;75.56
27864;BME280;15980;51.092;13.916;2023-03-25T22:42:24;97594.81;;;8.74;73.14
27864;BME280;15980;51.092;13.916;2023-03-25T22:52:24;97591.72;;;8.76;73.08
27864;BME280;15980;51.092;13.916;2023-03-25T23:02:24;97591.97;;;8.87;72.05
27864;BME280;15980;51.092;13.916;2023-03-25T23:12:25;97586.88;;;8.85;72.16
27864;BME280;15980;51.092;13.916;2023-03-25T23:22:26;97580.69;;;8.88;71.74
27864;BME280;15980;51.092;13.916;2023-03-25T23:32:26;97586.25;;;8.76;73.42
27864;BME280;15980;51.092;13.916;2023-03-25T23:42:27;97590.59;;;8.61;76.85
27864;BME280;15980;51.092;13.916;2023-03-25T23:52:27;97589.06;;;8.32;80.82
